createdAt,value
2022-10-22T00:01:29.042Z,99823.75
2022-10-22T00:03:56.335Z,99824.30
2022-10-22T00:06:23.402Z,99831.47
2022-10-22T00:08:50.723Z,99831.90
2022-10-22T00:11:19.695Z,99827.58
2022-10-22T00:16:19.434Z,99820.81
2022-10-22T00:18:46.521Z,99816.12
2022-10-22T00:21:13.702Z,99810.98
2022-10-22T00:23:43.442Z,99816.38
2022-10-22T00:26:11.412Z,99816.76
2022-10-22T00:28:38.807Z,99820.56
2022-10-22T00:31:06.960Z,99816.23
2022-10-22T00:33:34.059Z,99812.94
2022-10-22T00:36:01.966Z,99806.61
2022-10-22T00:38:29.092Z,99803.17
2022-10-22T00:40:56.085Z,99795.90
2022-10-22T00:43:23.298Z,99788.95
2022-10-22T00:45:50.688Z,99788.75
2022-10-22T00:48:20.893Z,99789.89
2022-10-22T00:50:51.136Z,99786.27
2022-10-22T00:53:20.704Z,99784.70
2022-10-22T00:55:53.370Z,99786.41
2022-10-22T00:58:21.625Z,99788.29
2022-10-22T01:00:49.731Z,99785.79
2022-10-22T01:03:17.610Z,99780.88
2022-10-22T01:05:52.193Z,99781.87
2022-10-22T01:08:26.709Z,99767.42
2022-10-22T01:11:01.498Z,99764.07
2022-10-22T01:13:40.725Z,99764.70
2022-10-22T01:16:12.926Z,99769.86
2022-10-22T01:18:51.556Z,99775.23
2022-10-22T01:21:26.417Z,99765.50
2022-10-22T01:24:17.346Z,99764.36
2022-10-22T01:27:01.195Z,99760.83
2022-10-22T01:29:31.624Z,99756.77
2022-10-22T01:32:02.360Z,99755.17
2022-10-22T01:34:31.549Z,99752.57
2022-10-22T01:37:00.651Z,99751.48
2022-10-22T01:39:29.533Z,99747.79
2022-10-22T01:41:59.318Z,99748.27
2022-10-22T01:44:34.026Z,99753.20
2022-10-22T01:47:15.564Z,99749.39
2022-10-22T01:50:05.163Z,99752.33
2022-10-22T01:52:47.668Z,99756.77
2022-10-22T01:55:22.174Z,99754.14
2022-10-22T01:58:15.513Z,99756.91
2022-10-22T02:00:51.828Z,99757.14
2022-10-22T02:03:26.691Z,99750.20
2022-10-22T02:05:58.082Z,99744.92
2022-10-22T02:08:29.220Z,99743.33
2022-10-22T02:10:58.566Z,99741.39
2022-10-22T02:13:29.451Z,99737.89
2022-10-22T02:15:58.396Z,99738.25
2022-10-22T02:18:29.277Z,99737.02
2022-10-22T02:20:57.127Z,99739.97
2022-10-22T02:23:25.051Z,99734.15
2022-10-22T02:25:57.019Z,99737.27
2022-10-22T02:28:28.713Z,99737.78
2022-10-22T02:31:01.518Z,99737.42
2022-10-22T02:33:32.789Z,99738.29
2022-10-22T02:36:02.288Z,99741.23
2022-10-22T02:38:30.391Z,99737.59
2022-10-22T02:40:57.602Z,99741.52
2022-10-22T02:43:26.879Z,99744.78
2022-10-22T02:45:54.157Z,99740.58
2022-10-22T02:50:53.176Z,99740.66
2022-10-22T02:53:20.250Z,99742.34
2022-10-22T02:55:47.259Z,99740.91
2022-10-22T02:58:15.120Z,99744.69
2022-10-22T03:00:42.511Z,99742.52
2022-10-22T03:03:09.738Z,99744.20
2022-10-22T03:05:36.939Z,99742.66
2022-10-22T03:08:03.906Z,99739.34
2022-10-22T03:10:31.030Z,99733.92
2022-10-22T03:12:58.030Z,99732.75
2022-10-22T03:15:25.191Z,99730.03
2022-10-22T03:17:52.318Z,99730.86
2022-10-22T03:20:19.314Z,99726.16
2022-10-22T03:22:46.647Z,99722.72
2022-10-22T03:25:17.697Z,99722.02
2022-10-22T03:27:45.061Z,99724.27
2022-10-22T03:30:13.777Z,99718.88
2022-10-22T03:32:40.904Z,99722.11
2022-10-22T03:35:09.859Z,99723.48
2022-10-22T03:37:38.516Z,99726.79
2022-10-22T03:40:07.392Z,99727.83
2022-10-22T03:42:34.687Z,99733.30
2022-10-22T03:45:01.796Z,99740.39
2022-10-22T03:47:28.867Z,99746.30
2022-10-22T03:49:55.930Z,99751.66
2022-10-22T03:52:23.041Z,99746.92
2022-10-22T03:54:50.228Z,99742.88
2022-10-22T03:57:17.425Z,99729.98
2022-10-22T03:59:46.973Z,99723.19
2022-10-22T04:02:14.973Z,99718.15
2022-10-22T04:04:42.082Z,99724.21
2022-10-22T04:07:09.678Z,99728.59
2022-10-22T04:09:37.410Z,99734.66
2022-10-22T04:12:05.707Z,99735.58
2022-10-22T04:14:32.889Z,99731.95
2022-10-22T04:16:59.876Z,99721.41
2022-10-22T04:19:27.200Z,99717.66
2022-10-22T04:21:54.250Z,99720.28
2022-10-22T04:24:21.194Z,99718.41
2022-10-22T04:26:48.541Z,99707.45
2022-10-22T04:29:16.363Z,99694.58
2022-10-22T04:31:43.796Z,99688.87
2022-10-22T04:34:10.856Z,99693.02
2022-10-22T04:36:38.043Z,99693.20
2022-10-22T04:39:05.715Z,99686.61
2022-10-22T04:41:34.815Z,99683.23
2022-10-22T04:44:02.008Z,99672.72
2022-10-22T04:46:31.206Z,99672.01
2022-10-22T04:48:58.301Z,99675.85
2022-10-22T04:51:27.103Z,99673.72
2022-10-22T04:53:54.394Z,99680.08
2022-10-22T04:56:23.626Z,99680.60
2022-10-22T04:58:51.761Z,99682.37
2022-10-22T05:01:20.542Z,99688.67
2022-10-22T05:03:48.486Z,99690.61
2022-10-22T05:06:16.465Z,99688.05
2022-10-22T05:08:43.940Z,99687.17
2022-10-22T05:11:19.250Z,99688.94
2022-10-22T05:13:47.156Z,99686.64
2022-10-22T05:16:14.574Z,99690.88
2022-10-22T05:18:43.371Z,99691.79
2022-10-22T05:21:14.014Z,99695.96
2022-10-22T05:23:41.597Z,99700.63
2022-10-22T05:26:10.715Z,99697.70
2022-10-22T05:28:38.730Z,99698.60
2022-10-22T05:31:07.205Z,99699.77
2022-10-22T05:33:35.484Z,99700.08
2022-10-22T05:36:03.552Z,99700.05
2022-10-22T05:38:30.685Z,99699.38
2022-10-22T05:41:05.276Z,99697.35
2022-10-22T05:43:32.624Z,99695.89
2022-10-22T05:46:03.164Z,99695.73
2022-10-22T05:48:30.346Z,99696.05
2022-10-22T05:50:57.445Z,99696.28
2022-10-22T05:53:24.991Z,99699.59
2022-10-22T05:55:52.533Z,99698.91
2022-10-22T05:58:19.702Z,99695.09
2022-10-22T06:00:46.657Z,99687.45
2022-10-22T06:03:13.895Z,99682.30
2022-10-22T06:05:40.994Z,99692.55
2022-10-22T06:08:12.047Z,99704.21
2022-10-22T06:10:44.936Z,99706.23
2022-10-22T06:13:11.939Z,99706.44
2022-10-22T06:15:39.212Z,99709.46
2022-10-22T06:18:06.335Z,99712.94
2022-10-22T06:20:34.886Z,99706.80
2022-10-22T06:23:02.134Z,99716.23
2022-10-22T06:25:29.201Z,99713.20
2022-10-22T06:27:56.186Z,99715.29
2022-10-22T06:30:23.214Z,99727.23
2022-10-22T06:32:50.660Z,99720.40
2022-10-22T06:35:17.868Z,99715.90
2022-10-22T06:37:44.825Z,99720.76
2022-10-22T06:40:13.980Z,99734.23
2022-10-22T06:42:41.352Z,99727.10
2022-10-22T06:45:11.861Z,99720.98
2022-10-22T06:47:39.241Z,99724.30
2022-10-22T06:50:07.683Z,99723.11
2022-10-22T06:52:34.684Z,99727.69
2022-10-22T06:55:02.042Z,99732.25
2022-10-22T06:57:29.120Z,99733.96
2022-10-22T06:59:56.235Z,99732.34
2022-10-22T07:02:23.673Z,99727.98
2022-10-22T07:04:50.751Z,99735.79
2022-10-22T07:07:17.921Z,99744.24
2022-10-22T07:09:46.867Z,99761.00
2022-10-22T07:12:14.188Z,99770.17
2022-10-22T07:14:41.570Z,99763.21
2022-10-22T07:17:08.896Z,99760.51
2022-10-22T07:19:36.013Z,99764.56
2022-10-22T07:22:03.493Z,99765.42
2022-10-22T07:24:30.804Z,99770.83
2022-10-22T07:26:57.895Z,99773.27
2022-10-22T07:29:24.953Z,99769.41
2022-10-22T07:31:52.411Z,99767.43
2022-10-22T07:36:47.440Z,99758.71
2022-10-22T07:39:14.509Z,99746.48
2022-10-22T07:41:41.522Z,99743.73
2022-10-22T07:44:09.023Z,99740.32
2022-10-22T07:46:36.484Z,99743.09
2022-10-22T07:49:03.675Z,99749.20
2022-10-22T07:51:30.872Z,99748.31
2022-10-22T07:53:57.912Z,99749.27
2022-10-22T07:56:25.145Z,99754.58
2022-10-22T07:58:52.378Z,99754.93
2022-10-22T08:01:19.631Z,99754.02
2022-10-22T08:03:46.789Z,99763.54
2022-10-22T08:06:15.895Z,99759.04
2022-10-22T08:08:43.569Z,99756.03
2022-10-22T08:11:11.132Z,99763.25
2022-10-22T08:13:44.128Z,99764.20
2022-10-22T08:16:15.034Z,99762.33
2022-10-22T08:18:42.037Z,99767.27
2022-10-22T08:21:09.673Z,99771.02
2022-10-22T08:23:36.801Z,99769.39
2022-10-22T08:26:04.187Z,99775.70
2022-10-22T08:28:36.105Z,99776.92
2022-10-22T08:31:03.134Z,99783.66
2022-10-22T08:33:30.211Z,99781.21
2022-10-22T08:35:57.433Z,99779.77
2022-10-22T08:38:24.876Z,99775.77
2022-10-22T08:40:55.100Z,99777.29
2022-10-22T08:43:45.293Z,99770.66
2022-10-22T08:46:25.117Z,99766.66
2022-10-22T08:48:54.841Z,99767.64
2022-10-22T08:51:27.076Z,99770.20
2022-10-22T08:54:13.893Z,99766.02
2022-10-22T08:56:44.157Z,99765.70
2022-10-22T08:59:18.603Z,99772.61
2022-10-22T09:01:48.994Z,99778.66
2022-10-22T09:04:25.311Z,99780.59
2022-10-22T09:06:54.364Z,99782.92
2022-10-22T09:09:22.714Z,99782.83
2022-10-22T09:11:52.258Z,99793.56
2022-10-22T09:14:23.352Z,99798.70
2022-10-22T09:17:12.807Z,99799.48
2022-10-22T09:19:49.553Z,99800.89
2022-10-22T09:22:29.241Z,99802.31
2022-10-22T09:25:00.539Z,99794.49
2022-10-22T09:27:31.904Z,99789.34
2022-10-22T09:29:59.483Z,99789.71
2022-10-22T09:32:27.520Z,99791.06
2022-10-22T09:34:59.279Z,99788.15
2022-10-22T09:37:30.515Z,99780.80
2022-10-22T09:40:00.094Z,99771.64
2022-10-22T09:42:27.734Z,99769.49
2022-10-22T09:44:58.895Z,99769.81
2022-10-22T09:47:43.478Z,99765.11
2022-10-22T09:50:31.574Z,99764.44
2022-10-22T09:53:02.704Z,99763.91
2022-10-22T09:55:30.608Z,99763.17
2022-10-22T09:58:00.209Z,99760.31
2022-10-22T10:00:28.818Z,99764.47
2022-10-22T10:02:59.657Z,99767.38
2022-10-22T10:05:31.977Z,99770.20
2022-10-22T10:07:59.493Z,99771.52
2022-10-22T10:10:34.993Z,99776.77
2022-10-22T10:13:10.835Z,99775.37
2022-10-22T10:15:45.243Z,99770.23
2022-10-22T10:18:26.338Z,99773.16
2022-10-22T10:21:00.806Z,99772.78
2022-10-22T10:23:35.039Z,99775.73
2022-10-22T10:26:09.223Z,99785.20
2022-10-22T10:28:53.282Z,99792.08
2022-10-22T10:31:27.738Z,99794.67
2022-10-22T10:34:04.743Z,99793.30
2022-10-22T10:36:33.345Z,99782.54
2022-10-22T10:39:05.462Z,99778.10
2022-10-22T10:41:43.534Z,99783.77
2022-10-22T10:44:39.975Z,99787.23
2022-10-22T10:47:17.339Z,99795.23
2022-10-22T10:49:47.155Z,99794.88
2022-10-22T10:52:23.819Z,99799.13
2022-10-22T10:55:03.501Z,99799.34
2022-10-22T10:57:46.885Z,99799.80
2022-10-22T11:00:19.852Z,99800.55
2022-10-22T11:03:17.227Z,99797.81
2022-10-22T11:05:46.905Z,99792.27
2022-10-22T11:08:20.135Z,99788.65
2022-10-22T11:10:51.069Z,99785.50
2022-10-22T11:13:23.717Z,99777.13
2022-10-22T11:15:56.654Z,99777.38
2022-10-22T11:18:30.255Z,99769.77
2022-10-22T11:21:04.736Z,99764.26
2022-10-22T11:23:38.679Z,99765.75
2022-10-22T11:26:11.612Z,99762.95
2022-10-22T11:28:43.468Z,99763.80
2022-10-22T11:31:15.895Z,99762.21
2022-10-22T11:33:49.734Z,99762.91
2022-10-22T11:36:18.851Z,99768.97
2022-10-22T11:38:46.005Z,99764.56
2022-10-22T11:41:17.690Z,99762.48
2022-10-22T11:44:10.707Z,99763.27
2022-10-22T11:46:58.183Z,99759.72
2022-10-22T11:49:28.220Z,99759.25
2022-10-22T11:52:24.130Z,99758.98
2022-10-22T11:54:55.020Z,99755.06
2022-10-22T11:57:27.400Z,99755.35
2022-10-22T11:59:57.966Z,99752.98
2022-10-22T12:02:43.195Z,99748.35
2022-10-22T12:05:40.303Z,99743.40
2022-10-22T12:08:24.527Z,99745.20
2022-10-22T12:11:13.279Z,99739.54
2022-10-22T12:16:55.574Z,99734.73
2022-10-22T12:19:31.511Z,99735.93
2022-10-22T12:22:03.303Z,99731.06
2022-10-22T12:24:35.650Z,99726.46
2022-10-22T12:27:02.968Z,99728.66
2022-10-22T12:29:32.938Z,99729.91
2022-10-22T12:32:04.057Z,99726.73
2022-10-22T12:34:31.217Z,99724.67
2022-10-22T12:36:58.250Z,99729.56
2022-10-22T12:39:30.078Z,99725.05
2022-10-22T12:41:57.686Z,99724.55
2022-10-22T12:44:24.681Z,99725.98
2022-10-22T12:46:56.152Z,99723.28
2022-10-22T12:49:30.089Z,99725.23
2022-10-22T12:52:01.863Z,99726.70
2022-10-22T12:54:32.066Z,99720.04
2022-10-22T12:57:00.468Z,99718.15
2022-10-22T12:59:30.385Z,99721.95
2022-10-22T13:01:58.291Z,99726.80
2022-10-22T13:04:35.901Z,99724.20
2022-10-22T13:07:22.852Z,99727.65
2022-10-22T13:09:59.075Z,99742.42
2022-10-22T13:12:29.333Z,99738.83
2022-10-22T13:14:56.446Z,99744.66
2022-10-22T13:17:39.537Z,99743.39
2022-10-22T13:20:17.461Z,99748.58
2022-10-22T13:22:58.194Z,99751.38
2022-10-22T13:25:27.509Z,99756.15
2022-10-22T13:27:57.457Z,99750.71
2022-10-22T13:30:26.543Z,99744.23
2022-10-22T13:32:56.102Z,99745.12
2022-10-22T13:35:25.619Z,99746.41
2022-10-22T13:37:52.720Z,99745.23
2022-10-22T13:40:20.418Z,99745.09
2022-10-22T13:42:47.447Z,99741.84
2022-10-22T13:45:15.521Z,99742.61
2022-10-22T13:47:43.907Z,99744.70
2022-10-22T13:50:16.981Z,99744.91
2022-10-22T13:52:47.132Z,99736.02
2022-10-22T13:55:19.483Z,99734.89
2022-10-22T13:57:47.035Z,99736.81
2022-10-22T14:00:18.321Z,99735.63
2022-10-22T14:02:47.781Z,99737.02
2022-10-22T14:05:15.203Z,99732.85
2022-10-22T14:07:42.521Z,99729.16
2022-10-22T14:10:21.022Z,99724.30
2022-10-22T14:12:52.402Z,99722.39
2022-10-22T14:15:22.514Z,99721.69
2022-10-22T14:17:54.933Z,99727.27
2022-10-22T14:20:27.655Z,99725.40
2022-10-22T14:22:54.706Z,99723.21
2022-10-22T14:25:23.787Z,99723.63
2022-10-22T14:27:51.475Z,99722.85
2022-10-22T14:30:20.822Z,99716.58
2022-10-22T14:32:49.034Z,99714.23
2022-10-22T14:35:18.301Z,99711.77
2022-10-22T14:37:45.368Z,99706.39
2022-10-22T14:40:16.657Z,99707.30
2022-10-22T14:42:45.296Z,99711.54
2022-10-22T14:45:17.949Z,99714.24
2022-10-22T14:47:45.541Z,99712.10
2022-10-22T14:50:13.868Z,99713.44
2022-10-22T14:52:43.638Z,99711.65
2022-10-22T14:55:12.577Z,99718.91
2022-10-22T14:57:40.414Z,99723.14
2022-10-22T15:00:11.129Z,99724.20
2022-10-22T15:02:38.797Z,99722.84
2022-10-22T15:05:07.193Z,99720.73
2022-10-22T15:07:34.396Z,99720.89
2022-10-22T15:10:01.712Z,99721.10
2022-10-22T15:12:28.969Z,99721.53
2022-10-22T15:14:55.957Z,99724.78
2022-10-22T15:17:23.100Z,99727.02
2022-10-22T15:19:50.266Z,99727.20
2022-10-22T15:22:17.578Z,99729.23
2022-10-22T15:24:44.896Z,99733.95
2022-10-22T15:27:13.780Z,99737.42
2022-10-22T15:29:41.094Z,99740.17
2022-10-22T15:32:10.561Z,99741.98
2022-10-22T15:34:40.321Z,99738.27
2022-10-22T15:37:08.907Z,99736.94
2022-10-22T15:39:36.443Z,99739.98
2022-10-22T15:42:03.512Z,99737.92
2022-10-22T15:44:32.145Z,99743.46
2022-10-22T15:46:59.745Z,99740.60
2022-10-22T15:49:28.544Z,99741.38
2022-10-22T15:51:56.067Z,99740.83
2022-10-22T15:54:30.558Z,99741.86
2022-10-22T15:56:58.970Z,99739.83
2022-10-22T15:59:26.085Z,99740.19
2022-10-22T16:01:53.381Z,99739.48
2022-10-22T16:04:20.776Z,99745.95
2022-10-22T16:06:49.986Z,99744.75
2022-10-22T16:09:18.857Z,99748.25
2022-10-22T16:11:46.838Z,99752.04
2022-10-22T16:14:15.957Z,99756.33
2022-10-22T16:16:46.603Z,99761.45
2022-10-22T16:19:14.485Z,99759.80
2022-10-22T16:21:42.234Z,99757.69
2022-10-22T16:24:10.769Z,99761.42
2022-10-22T16:26:38.180Z,99761.48
2022-10-22T16:29:05.591Z,99762.61
2022-10-22T16:31:32.757Z,99765.19
2022-10-22T16:34:00.392Z,99767.52
2022-10-22T16:36:27.767Z,99770.55
2022-10-22T16:38:56.480Z,99770.23
2022-10-22T16:41:25.108Z,99771.52
2022-10-22T16:43:53.845Z,99771.86
2022-10-22T16:46:23.234Z,99773.27
2022-10-22T16:48:51.466Z,99772.56
2022-10-22T16:51:20.733Z,99775.92
2022-10-22T16:53:48.083Z,99779.08
2022-10-22T16:56:16.572Z,99781.04
2022-10-22T16:58:47.803Z,99781.71
2022-10-22T17:01:17.970Z,99784.52
2022-10-22T17:03:45.320Z,99780.79
2022-10-22T17:06:13.152Z,99780.94
2022-10-22T17:08:42.130Z,99782.46
2022-10-22T17:11:14.353Z,99784.20
2022-10-22T17:13:43.128Z,99788.19
2022-10-22T17:16:12.539Z,99785.27
2022-10-22T17:18:41.218Z,99785.45
2022-10-22T17:21:09.609Z,99784.42
2022-10-22T17:23:36.845Z,99781.83
2022-10-22T17:26:06.627Z,99780.17
2022-10-22T17:28:34.113Z,99786.52
2022-10-22T17:31:16.186Z,99783.86
2022-10-22T17:33:43.551Z,99784.36
2022-10-22T17:36:13.737Z,99786.67
2022-10-22T17:38:42.567Z,99785.30
2022-10-22T17:41:14.531Z,99784.95
2022-10-22T17:43:41.884Z,99786.70
2022-10-22T17:46:11.904Z,99784.33
2022-10-22T17:48:39.324Z,99784.17
2022-10-22T17:51:10.717Z,99781.06
2022-10-22T17:53:40.717Z,99786.36
2022-10-22T17:56:10.312Z,99787.04
2022-10-22T17:58:37.813Z,99786.80
2022-10-22T18:01:05.668Z,99788.38
2022-10-22T18:03:33.032Z,99788.52
2022-10-22T18:06:10.081Z,99791.13
2022-10-22T18:08:37.424Z,99793.80
2022-10-22T18:11:09.015Z,99791.61
2022-10-22T18:13:36.558Z,99790.94
2022-10-22T18:16:03.907Z,99792.75
2022-10-22T18:18:32.149Z,99794.08
2022-10-22T18:21:00.630Z,99793.30
2022-10-22T18:23:27.868Z,99790.70
2022-10-22T18:25:55.430Z,99794.19
2022-10-22T18:28:22.589Z,99791.34
2022-10-22T18:30:50.469Z,99795.17
2022-10-22T18:33:20.009Z,99787.52
2022-10-22T18:35:48.437Z,99792.64
2022-10-22T18:38:16.169Z,99794.21
2022-10-22T18:40:49.953Z,99791.14
2022-10-22T18:43:22.923Z,99792.76
2022-10-22T18:45:50.694Z,99792.67
2022-10-22T18:48:41.191Z,99795.39
2022-10-22T18:51:33.038Z,99792.44
2022-10-22T18:54:31.671Z,99791.44
2022-10-22T18:57:41.266Z,99792.83
2022-10-22T19:01:26.579Z,99795.14
2022-10-22T19:05:44.518Z,99796.27
2022-10-22T19:08:25.729Z,99798.25
2022-10-22T19:11:36.970Z,99802.22
2022-10-22T19:22:42.473Z,99799.31
2022-10-22T19:26:19.307Z,99798.60
2022-10-22T19:29:22.268Z,99799.30
2022-10-22T19:32:30.244Z,99810.27
2022-10-22T19:36:34.441Z,99814.74
2022-10-22T19:43:14.370Z,99825.02
2022-10-22T19:46:27.882Z,99830.09
2022-10-22T19:49:32.442Z,99828.83
2022-10-22T19:52:20.244Z,99833.44
2022-10-22T19:55:16.004Z,99838.09
2022-10-22T19:58:29.998Z,99837.59
2022-10-22T20:01:29.106Z,99840.77
2022-10-22T20:03:56.342Z,99840.80
2022-10-22T20:06:37.198Z,99846.86
2022-10-22T20:09:18.193Z,99853.66
2022-10-22T20:14:52.160Z,99857.27
2022-10-22T20:17:23.750Z,99863.23
2022-10-22T20:20:30.919Z,99863.36
2022-10-22T20:26:16.775Z,99869.21
2022-10-22T20:28:51.559Z,99871.70
2022-10-22T20:31:43.796Z,99874.13
2022-10-22T20:34:34.730Z,99877.83
2022-10-22T20:37:29.527Z,99878.01
2022-10-22T20:39:59.731Z,99876.38
2022-10-22T20:42:26.933Z,99879.66
2022-10-22T20:44:54.036Z,99881.02
2022-10-22T20:47:21.228Z,99881.47
2022-10-22T20:49:48.462Z,99884.13
2022-10-22T20:52:15.644Z,99886.70
2022-10-22T20:54:45.300Z,99889.05
2022-10-22T20:57:13.330Z,99889.67
2022-10-22T20:59:40.423Z,99890.18
2022-10-22T21:02:10.276Z,99886.46
2022-10-22T21:04:38.820Z,99883.56
2022-10-22T21:07:07.725Z,99885.17
2022-10-22T21:09:35.404Z,99879.52
2022-10-22T21:12:03.575Z,99880.95
2022-10-22T21:14:30.723Z,99882.69
2022-10-22T21:16:59.216Z,99887.64
2022-10-22T21:19:26.760Z,99888.08
2022-10-22T21:21:54.082Z,99891.65
2022-10-22T21:24:24.852Z,99895.01
2022-10-22T21:26:53.319Z,99894.59
2022-10-22T21:29:22.118Z,99898.16
2022-10-22T21:31:49.106Z,99900.30
2022-10-22T21:34:17.373Z,99897.52
2022-10-22T21:39:17.656Z,99892.42
2022-10-22T21:41:44.788Z,99899.27
2022-10-22T21:44:11.928Z,99898.02
2022-10-22T21:46:39.132Z,99894.92
2022-10-22T21:49:07.039Z,99896.56
2022-10-22T21:51:38.604Z,99896.39
2022-10-22T21:54:06.185Z,99898.96
2022-10-22T21:56:37.188Z,99899.32
2022-10-22T21:59:05.772Z,99900.33
2022-10-22T22:01:33.009Z,99904.55
2022-10-22T22:04:00.484Z,99904.60
2022-10-22T22:06:29.616Z,99904.98
2022-10-22T22:08:58.056Z,99907.08
2022-10-22T22:11:27.040Z,99906.67
2022-10-22T22:13:55.142Z,99903.66
2022-10-22T22:16:28.195Z,99905.66
2022-10-22T22:18:56.387Z,99909.64
2022-10-22T22:21:23.890Z,99913.03
2022-10-22T22:23:51.892Z,99911.57
2022-10-22T22:26:25.437Z,99917.48
2022-10-22T22:28:55.536Z,99915.39
2022-10-22T22:31:26.071Z,99918.74
2022-10-22T22:33:53.421Z,99921.85
2022-10-22T22:36:20.520Z,99924.14
2022-10-22T22:38:47.526Z,99926.86
2022-10-22T22:41:14.694Z,99928.17
2022-10-22T22:43:41.701Z,99932.64
2022-10-22T22:46:12.175Z,99935.58
2022-10-22T22:48:39.446Z,99936.48
2022-10-22T22:51:07.569Z,99941.00
2022-10-22T22:53:35.807Z,99943.61
2022-10-22T22:56:08.344Z,99945.02
2022-10-22T22:58:35.674Z,99949.23
2022-10-22T23:01:14.787Z,99945.75
2022-10-22T23:03:42.468Z,99949.11
2022-10-22T23:06:10.729Z,99952.03
2022-10-22T23:08:37.941Z,99957.72
2022-10-22T23:11:07.907Z,99958.77
2022-10-22T23:13:35.473Z,99965.86
2022-10-22T23:16:05.578Z,99961.78
2022-10-22T23:18:32.567Z,99961.98
2022-10-22T23:20:59.531Z,99964.77
2022-10-22T23:23:26.624Z,99965.66
2022-10-22T23:28:29.281Z,99971.48
2022-10-22T23:30:56.752Z,99972.83
2022-10-22T23:33:23.876Z,99973.66
2022-10-22T23:35:50.802Z,99976.39
2022-10-22T23:38:17.743Z,99978.83
2022-10-22T23:40:44.766Z,99981.05
2022-10-22T23:43:11.821Z,99977.84
2022-10-22T23:45:39.397Z,99977.63
2022-10-22T23:48:07.080Z,99978.98
2022-10-22T23:50:34.033Z,99981.77
2022-10-22T23:53:00.982Z,99979.73
2022-10-22T23:55:28.033Z,99980.66
2022-10-22T23:57:55.196Z,99984.64
